Time;durP1;ratioP1;P1;durP2;ratioP2;P2;SDS_P1;SDS_P2;PMS_P1;PMS_P2;Temp;Humidity;BMP_temperature;BMP_pressure;BME280_temperature;BME280_humidity;BME280_pressure;Samples;Min_cycle;Max_cycle;Signal;HPM_P1;HPM_P2
2023/09/05 00:01:53;;;;;;;7.68;4.72;;;18.10;99.90;;;;;;4994158;28;20479;-49
2023/09/05 00:04:19;;;;;;;9.27;5.05;;;18.10;99.90;;;;;;4994315;28;20112;-46
2023/09/05 00:06:46;;;;;;;9.55;4.75;;;18.00;99.90;;;;;;4993931;28;20049;-45
2023/09/05 00:09:12;;;;;;;10.43;5.43;;;18.00;99.90;;;;;;4993191;28;20394;-46
2023/09/05 00:11:38;;;;;;;11.43;5.25;;;18.00;99.90;;;;;;4994011;28;20029;-47
2023/09/05 00:14:04;;;;;;;9.70;5.43;;;18.00;99.90;;;;;;4993898;28;20030;-51
2023/09/05 00:16:30;;;;;;;9.77;5.60;;;18.00;99.90;;;;;;4994069;28;20057;-48
2023/09/05 00:18:56;;;;;;;10.23;5.20;;;17.90;99.90;;;;;;4993689;28;20040;-45
2023/09/05 00:21:22;;;;;;;10.55;6.32;;;17.90;99.90;;;;;;4993885;28;20102;-49
2023/09/05 00:23:47;;;;;;;11.52;6.13;;;17.90;99.90;;;;;;4993899;28;20030;-51
2023/09/05 00:26:13;;;;;;;9.30;5.90;;;18.00;99.90;;;;;;4993673;28;20503;-51
2023/09/05 00:28:43;;;;;;;13.57;7.00;;;17.90;99.90;;;;;;4993718;28;20030;-50
2023/09/05 00:31:11;;;;;;;8.68;5.43;;;18.00;99.90;;;;;;4993731;28;20027;-47
2023/09/05 00:33:37;;;;;;;11.45;5.68;;;18.00;99.90;;;;;;4993766;28;20038;-52
2023/09/05 00:36:04;;;;;;;11.93;6.10;;;18.00;99.90;;;;;;4993611;28;20026;-51
2023/09/05 00:38:29;;;;;;;8.77;5.60;;;18.00;99.90;;;;;;4993527;28;20034;-50
2023/09/05 00:40:56;;;;;;;9.35;5.18;;;17.90;99.90;;;;;;4993418;28;20092;-52
2023/09/05 00:43:21;;;;;;;13.10;6.97;;;17.90;99.90;;;;;;4993433;28;20076;-47
2023/09/05 00:45:51;;;;;;;10.45;5.90;;;17.90;99.90;;;;;;4993367;28;20031;-50
2023/09/05 00:48:23;;;;;;;12.90;7.45;;;17.90;99.90;;;;;;4993335;28;20165;-48
2023/09/05 00:50:51;;;;;;;10.35;5.57;;;17.90;99.90;;;;;;4993373;28;20030;-51
2023/09/05 00:53:17;;;;;;;15.25;6.90;;;17.90;99.90;;;;;;4993110;28;20524;-49
2023/09/05 00:55:43;;;;;;;12.38;7.53;;;17.90;99.90;;;;;;4993556;28;20113;-51
2023/09/05 00:58:10;;;;;;;11.15;6.28;;;17.80;99.90;;;;;;4993241;28;20034;-55
2023/09/05 01:00:36;;;;;;;13.13;7.20;;;17.80;99.90;;;;;;4993361;28;20104;-50
2023/09/05 01:03:02;;;;;;;12.88;6.65;;;17.80;99.90;;;;;;4993129;28;20093;-48
2023/09/05 01:05:31;;;;;;;13.27;7.38;;;17.80;99.90;;;;;;4992957;28;20018;-54
2023/09/05 01:08:05;;;;;;;14.77;7.55;;;17.80;99.90;;;;;;4992798;28;20069;-48
2023/09/05 01:10:45;;;;;;;14.13;7.32;;;17.90;99.90;;;;;;4992281;28;20031;-49
2023/09/05 01:13:11;;;;;;;11.65;6.35;;;17.80;99.90;;;;;;4992931;28;20029;-51
2023/09/05 01:15:37;;;;;;;13.35;5.78;;;17.90;99.90;;;;;;4991478;28;20030;-48
2023/09/05 01:18:03;;;;;;;12.18;6.68;;;17.90;99.90;;;;;;4992798;28;20094;-47
2023/09/05 01:20:52;;;;;;;11.75;7.10;;;17.90;99.90;;;;;;4992753;28;20026;-51
2023/09/05 01:23:24;;;;;;;14.23;7.47;;;17.90;99.90;;;;;;4992652;28;20023;-49
2023/09/05 01:25:50;;;;;;;11.30;6.30;;;17.90;99.90;;;;;;4992588;28;20114;-49
2023/09/05 01:28:18;;;;;;;14.60;7.30;;;17.90;99.90;;;;;;4992755;28;20035;-50
2023/09/05 01:30:45;;;;;;;15.90;7.25;;;17.90;99.90;;;;;;4992639;28;20034;-51
2023/09/05 01:33:13;;;;;;;12.70;6.75;;;17.90;99.90;;;;;;4992505;28;20407;-50
2023/09/05 01:35:38;;;;;;;14.35;7.88;;;17.90;99.90;;;;;;4992473;28;20475;-50
2023/09/05 01:38:04;;;;;;;14.57;7.78;;;17.90;99.90;;;;;;4992348;28;20049;-50
2023/09/05 01:40:30;;;;;;;12.10;6.57;;;17.90;99.90;;;;;;4992329;28;20045;-55
2023/09/05 01:42:55;;;;;;;14.93;7.72;;;17.90;99.90;;;;;;4992344;28;20096;-50
2023/09/05 01:45:21;;;;;;;11.85;7.05;;;17.90;99.90;;;;;;4990987;28;20018;-50
2023/09/05 01:47:47;;;;;;;14.20;8.27;;;17.90;99.90;;;;;;4992192;28;20035;-51
2023/09/05 01:50:12;;;;;;;14.07;7.68;;;17.90;99.90;;;;;;4990947;28;20360;-50
2023/09/05 01:52:38;;;;;;;18.17;8.02;;;18.00;99.90;;;;;;4992024;28;20022;-50
2023/09/05 01:55:04;;;;;;;17.10;8.10;;;18.00;99.90;;;;;;4992020;28;20026;-54
2023/09/05 01:57:30;;;;;;;13.15;7.40;;;18.00;99.90;;;;;;4992056;28;20041;-48
2023/09/05 01:59:56;;;;;;;14.88;7.78;;;18.00;99.90;;;;;;4991906;28;20030;-51
2023/09/05 02:02:21;;;;;;;15.57;7.82;;;18.00;99.90;;;;;;4991995;28;20026;-52
2023/09/05 02:04:47;;;;;;;12.50;7.03;;;18.00;99.90;;;;;;4990915;28;20022;-47
2023/09/05 02:07:13;;;;;;;17.58;8.43;;;18.00;99.90;;;;;;4990296;28;20047;-52
2023/09/05 02:09:38;;;;;;;15.07;7.15;;;18.00;99.90;;;;;;4991831;28;20121;-49
2023/09/05 02:12:04;;;;;;;15.55;7.93;;;18.00;99.90;;;;;;4991702;28;20023;-49
2023/09/05 02:14:29;;;;;;;11.65;6.80;;;18.00;99.90;;;;;;4991676;28;20048;-45
2023/09/05 02:16:55;;;;;;;14.35;6.78;;;18.00;99.90;;;;;;4991816;28;20089;-50
2023/09/05 02:19:23;;;;;;;12.38;7.03;;;17.90;99.90;;;;;;4991639;28;20034;-48
2023/09/05 02:21:49;;;;;;;15.55;6.88;;;17.90;99.90;;;;;;4989517;28;20030;-48
2023/09/05 02:24:15;;;;;;;14.93;7.55;;;17.90;99.90;;;;;;4991402;28;20034;-47
2023/09/05 02:26:40;;;;;;;12.25;7.72;;;17.90;99.90;;;;;;4991493;28;20085;-48
2023/09/05 02:29:06;;;;;;;13.70;7.82;;;17.90;99.90;;;;;;4989851;28;20125;-49
2023/09/05 02:31:31;;;;;;;11.98;7.38;;;17.90;99.90;;;;;;4991379;28;20011;-50
2023/09/05 02:33:57;;;;;;;12.52;6.95;;;17.90;99.90;;;;;;4991163;28;20022;-49
2023/09/05 02:36:22;;;;;;;15.85;7.15;;;17.90;99.90;;;;;;4991172;28;20023;-46
2023/09/05 02:38:48;;;;;;;13.20;7.40;;;17.90;99.90;;;;;;4991330;28;20038;-46
2023/09/05 02:41:15;;;;;;;17.45;8.07;;;17.90;99.90;;;;;;4991293;28;20018;-49
2023/09/05 02:43:41;;;;;;;10.73;6.65;;;17.90;99.90;;;;;;4991028;28;20026;-48
2023/09/05 02:46:08;;;;;;;17.33;6.85;;;17.90;99.90;;;;;;4990878;28;20018;-46
2023/09/05 02:48:41;;;;;;;11.27;6.60;;;17.90;99.90;;;;;;4991207;28;20030;-45
2023/09/05 02:51:09;;;;;;;14.60;6.60;;;17.90;99.90;;;;;;4991358;28;20092;-48
2023/09/05 02:53:36;;;;;;;13.90;7.40;;;17.90;99.90;;;;;;4991289;28;20041;-53
2023/09/05 02:56:01;;;;;;;13.35;7.43;;;17.90;99.90;;;;;;4990937;28;20109;-52
2023/09/05 02:58:28;;;;;;;14.32;7.38;;;17.90;99.90;;;;;;4991321;28;20558;-48
2023/09/05 03:01:07;;;;;;;11.63;6.60;;;17.90;99.90;;;;;;4991082;28;20161;-48
2023/09/05 03:03:32;;;;;;;11.07;6.88;;;18.00;99.90;;;;;;4990988;28;20037;-54
2023/09/05 03:06:07;;;;;;;13.50;6.70;;;18.00;99.90;;;;;;4990967;28;20030;-53
2023/09/05 03:08:34;;;;;;;12.63;6.80;;;17.90;99.90;;;;;;4990706;28;20042;-45
2023/09/05 03:11:00;;;;;;;12.32;7.40;;;17.90;99.90;;;;;;4991281;28;20046;-48
2023/09/05 03:13:26;;;;;;;13.00;7.00;;;17.90;99.90;;;;;;4990768;28;20026;-54
2023/09/05 03:15:52;;;;;;;12.15;6.57;;;17.90;99.90;;;;;;4990717;28;20022;-46
2023/09/05 03:18:18;;;;;;;13.95;6.80;;;17.90;99.90;;;;;;4990573;28;20061;-46
2023/09/05 03:20:44;;;;;;;11.98;6.53;;;17.90;99.90;;;;;;4992429;28;20656;-46
2023/09/05 03:23:11;;;;;;;11.02;6.25;;;17.90;99.90;;;;;;4992939;28;20026;-46
2023/09/05 03:25:37;;;;;;;9.45;5.93;;;17.90;99.90;;;;;;4992611;28;20076;-46
2023/09/05 03:28:03;;;;;;;12.88;6.25;;;17.90;99.90;;;;;;4992266;28;20027;-46
2023/09/05 03:30:28;;;;;;;11.55;6.20;;;17.80;99.90;;;;;;4990733;28;20025;-45
2023/09/05 03:32:54;;;;;;;18.40;6.88;;;17.80;99.90;;;;;;4992899;28;20062;-45
2023/09/05 03:35:20;;;;;;;12.63;7.13;;;17.80;99.90;;;;;;4994652;28;20168;-45
2023/09/05 03:37:46;;;;;;;12.13;6.50;;;17.80;99.90;;;;;;4994531;28;20497;-46
2023/09/05 03:40:12;;;;;;;11.88;6.63;;;17.80;99.90;;;;;;4994764;28;20097;-45
2023/09/05 03:42:38;;;;;;;12.70;7.20;;;17.80;99.90;;;;;;4994507;28;20152;-46
2023/09/05 03:45:04;;;;;;;11.50;6.43;;;17.70;99.90;;;;;;4994679;28;20101;-46
2023/09/05 03:47:30;;;;;;;14.93;7.32;;;17.70;99.90;;;;;;4994463;28;20385;-49
2023/09/05 03:49:55;;;;;;;12.95;7.05;;;17.70;99.90;;;;;;4994486;28;20018;-46
2023/09/05 03:52:21;;;;;;;10.52;6.30;;;17.70;99.90;;;;;;4994346;28;20198;-46
2023/09/05 03:54:47;;;;;;;15.27;7.25;;;17.80;99.90;;;;;;4994075;28;20037;-49
2023/09/05 03:57:12;;;;;;;12.70;6.85;;;17.70;99.90;;;;;;4994520;28;20117;-46
2023/09/05 03:59:38;;;;;;;12.40;6.20;;;17.70;99.90;;;;;;4994051;28;20042;-46
2023/09/05 04:02:04;;;;;;;12.73;7.53;;;17.70;99.90;;;;;;4994114;28;20117;-46
2023/09/05 04:04:29;;;;;;;12.30;6.63;;;17.70;99.90;;;;;;4994108;28;20026;-52
2023/09/05 04:06:55;;;;;;;12.10;7.28;;;17.70;99.90;;;;;;4993896;28;20104;-45
2023/09/05 04:09:20;;;;;;;13.57;7.32;;;17.70;99.90;;;;;;4994028;28;20038;-49
2023/09/05 04:11:46;;;;;;;12.75;7.13;;;17.60;99.90;;;;;;4993957;28;20019;-49
2023/09/05 04:14:12;;;;;;;16.08;7.60;;;17.60;99.90;;;;;;4993911;28;20022;-51
2023/09/05 04:16:37;;;;;;;14.68;8.15;;;17.60;99.90;;;;;;4993565;28;20019;-51
2023/09/05 04:19:03;;;;;;;13.23;8.27;;;17.60;99.90;;;;;;4993794;28;20034;-46
2023/09/05 04:21:29;;;;;;;17.05;9.13;;;17.60;99.90;;;;;;4993576;28;20026;-47
2023/09/05 04:23:54;;;;;;;18.95;8.93;;;17.70;99.90;;;;;;4993840;28;20457;-45
2023/09/05 04:26:22;;;;;;;14.82;8.65;;;17.70;99.90;;;;;;4993709;28;20023;-46
2023/09/05 04:28:47;;;;;;;16.30;8.60;;;17.70;99.90;;;;;;4993647;28;20061;-51
2023/09/05 04:31:18;;;;;;;11.43;7.15;;;17.70;99.90;;;;;;4993772;28;20054;-53
2023/09/05 04:33:43;;;;;;;17.77;8.90;;;17.70;99.90;;;;;;4993662;28;20030;-52
2023/09/05 04:36:09;;;;;;;18.00;7.75;;;17.70;99.90;;;;;;4993616;28;20025;-45
2023/09/05 04:38:36;;;;;;;15.63;8.70;;;17.60;99.90;;;;;;4993295;28;20041;-49
2023/09/05 04:41:02;;;;;;;21.45;9.50;;;17.60;99.90;;;;;;4976035;28;20501;-46
2023/09/05 04:43:29;;;;;;;18.75;9.60;;;17.60;99.90;;;;;;4992812;28;20031;-47
2023/09/05 04:45:56;;;;;;;17.08;8.00;;;17.50;99.90;;;;;;4993183;28;20045;-48
2023/09/05 04:48:22;;;;;;;22.45;10.00;;;17.50;99.90;;;;;;4993520;28;20123;-45
2023/09/05 04:50:48;;;;;;;18.63;9.63;;;17.40;99.90;;;;;;4993245;28;20032;-49
2023/09/05 04:53:14;;;;;;;16.25;8.75;;;17.40;99.90;;;;;;4993454;28;20034;-46
2023/09/05 04:55:42;;;;;;;21.83;9.57;;;17.40;99.90;;;;;;4993145;28;20057;-47
2023/09/05 04:58:08;;;;;;;23.48;9.93;;;17.40;99.90;;;;;;4993215;28;20060;-48
2023/09/05 05:00:34;;;;;;;18.55;9.27;;;17.30;99.90;;;;;;4993290;28;20088;-50
2023/09/05 05:02:59;;;;;;;17.63;9.25;;;17.30;99.90;;;;;;4993050;28;20442;-49
2023/09/05 05:05:25;;;;;;;16.80;8.85;;;17.30;99.90;;;;;;4993073;28;20035;-48
2023/09/05 05:07:51;;;;;;;16.98;8.82;;;17.20;99.90;;;;;;4992950;28;20050;-48
2023/09/05 05:10:16;;;;;;;15.57;9.07;;;17.20;99.90;;;;;;4993208;28;20030;-45
2023/09/05 05:12:42;;;;;;;16.90;8.80;;;17.20;99.90;;;;;;4992824;28;20030;-45
2023/09/05 05:15:09;;;;;;;18.42;8.73;;;17.20;99.90;;;;;;4993048;28;20034;-45
2023/09/05 05:17:36;;;;;;;20.10;9.57;;;17.20;99.90;;;;;;4992967;28;20027;-49
2023/09/05 05:20:04;;;;;;;17.27;9.63;;;17.10;99.90;;;;;;4992535;28;20042;-52
2023/09/05 05:22:29;;;;;;;18.88;9.43;;;17.20;99.90;;;;;;4992730;28;20443;-47
2023/09/05 05:24:55;;;;;;;22.45;10.45;;;17.20;99.90;;;;;;4992805;28;20030;-52
2023/09/05 05:27:20;;;;;;;20.58;9.85;;;17.20;99.90;;;;;;4992689;28;20026;-45
2023/09/05 05:29:46;;;;;;;20.70;10.00;;;17.20;99.90;;;;;;4992646;28;20779;-47
2023/09/05 05:32:12;;;;;;;22.85;10.70;;;17.20;99.90;;;;;;4992624;28;20108;-46
2023/09/05 05:34:37;;;;;;;19.48;9.93;;;17.30;99.90;;;;;;4992418;28;20056;-48
2023/09/05 05:37:03;;;;;;;17.15;10.00;;;17.30;99.90;;;;;;4992385;28;20018;-45
2023/09/05 05:39:29;;;;;;;20.30;10.88;;;17.30;99.90;;;;;;4992447;28;20121;-45
2023/09/05 05:41:55;;;;;;;20.80;10.02;;;17.50;99.90;;;;;;4991245;28;20030;-45
2023/09/05 05:44:21;;;;;;;22.45;10.60;;;17.30;99.90;;;;;;4992267;28;20021;-45
2023/09/05 05:46:47;;;;;;;18.83;10.40;;;17.30;99.90;;;;;;4992209;28;20038;-45
2023/09/05 05:49:12;;;;;;;21.42;11.43;;;17.30;99.90;;;;;;4992197;28;20061;-45
2023/09/05 05:51:39;;;;;;;21.20;10.60;;;17.30;99.90;;;;;;4992354;28;20018;-49
2023/09/05 05:54:05;;;;;;;19.52;10.15;;;17.40;99.90;;;;;;4992210;28;20030;-45
2023/09/05 05:56:31;;;;;;;23.15;10.77;;;17.40;99.90;;;;;;4991906;28;20475;-47
2023/09/05 05:58:57;;;;;;;22.50;10.98;;;17.40;99.90;;;;;;4992142;28;20065;-45
2023/09/05 06:01:22;;;;;;;18.35;9.55;;;17.40;99.90;;;;;;4992102;28;20042;-45
2023/09/05 06:03:48;;;;;;;19.45;9.25;;;17.40;99.90;;;;;;4991994;28;20070;-46
2023/09/05 06:06:14;;;;;;;25.35;10.13;;;17.40;99.90;;;;;;4992118;28;20014;-45
2023/09/05 06:08:40;;;;;;;25.23;10.68;;;17.40;99.90;;;;;;4991801;28;20053;-45
2023/09/05 06:11:06;;;;;;;22.55;10.57;;;17.40;99.90;;;;;;4991838;28;20170;-45
2023/09/05 06:13:33;;;;;;;20.08;10.73;;;17.50;99.90;;;;;;4991748;28;20439;-46
2023/09/05 06:15:59;;;;;;;24.35;9.48;;;17.50;99.90;;;;;;4991770;28;20015;-47
2023/09/05 06:18:24;;;;;;;18.92;9.45;;;17.60;99.90;;;;;;4991808;28;20383;-45
2023/09/05 06:20:50;;;;;;;20.70;10.38;;;17.60;99.90;;;;;;4991980;28;20026;-48
2023/09/05 06:23:15;;;;;;;26.75;11.77;;;17.60;99.90;;;;;;4991750;28;20026;-46
2023/09/05 06:25:41;;;;;;;23.38;10.07;;;17.70;99.90;;;;;;4991794;28;20384;-48
2023/09/05 06:28:07;;;;;;;20.05;9.75;;;17.70;99.90;;;;;;4991536;28;20106;-53
2023/09/05 06:30:32;;;;;;;22.00;10.95;;;17.80;99.90;;;;;;4991616;28;20115;-45
2023/09/05 06:32:58;;;;;;;18.83;10.48;;;17.90;99.90;;;;;;4991303;28;20072;-46
2023/09/05 06:35:24;;;;;;;23.20;11.43;;;18.10;99.90;;;;;;4973774;28;20471;-45
2023/09/05 06:37:58;;;;;;;19.60;10.10;;;18.20;99.90;;;;;;4991454;28;20042;-45
2023/09/05 06:40:25;;;;;;;22.42;10.15;;;18.30;99.90;;;;;;4991303;28;20026;-48
2023/09/05 06:42:51;;;;;;;23.27;10.90;;;18.50;99.90;;;;;;4991445;28;20061;-45
2023/09/05 06:45:17;;;;;;;17.17;9.25;;;18.60;99.90;;;;;;4973692;28;20058;-46
2023/09/05 06:47:43;;;;;;;19.83;9.75;;;18.70;99.90;;;;;;4990931;28;20022;-45
2023/09/05 06:50:10;;;;;;;15.48;8.80;;;18.80;99.90;;;;;;4991348;28;20022;-46
2023/09/05 06:52:36;;;;;;;16.35;9.38;;;19.00;99.90;;;;;;4973722;28;20538;-45
2023/09/05 06:55:01;;;;;;;13.82;8.35;;;19.20;99.90;;;;;;4991180;28;20034;-48
2023/09/05 06:57:27;;;;;;;13.85;8.27;;;19.60;99.90;;;;;;4990872;28;20034;-49
2023/09/05 06:59:53;;;;;;;13.70;7.75;;;20.10;99.90;;;;;;4991038;28;20084;-51
2023/09/05 07:02:19;;;;;;;14.75;7.53;;;20.70;99.90;;;;;;4990837;28;20034;-49
2023/09/05 07:04:44;;;;;;;14.43;7.53;;;21.20;99.90;;;;;;4991236;28;20399;-49
2023/09/05 07:07:10;;;;;;;16.77;8.00;;;21.80;99.90;;;;;;4990098;28;20053;-49
2023/09/05 07:09:36;;;;;;;13.23;7.82;;;22.30;99.90;;;;;;4990707;28;20384;-48
2023/09/05 07:12:03;;;;;;;13.52;7.13;;;22.70;99.90;;;;;;4990483;28;20049;-45
2023/09/05 07:14:29;;;;;;;10.57;6.20;;;23.10;99.90;;;;;;4990695;28;20026;-45
2023/09/05 07:16:55;;;;;;;11.00;6.57;;;23.50;99.90;;;;;;4990622;28;20030;-51
2023/09/05 07:19:21;;;;;;;10.70;6.05;;;24.10;99.90;;;;;;4990937;28;20045;-46
2023/09/05 07:21:46;;;;;;;10.38;5.97;;;24.60;99.90;;;;;;4990801;28;20530;-53
2023/09/05 07:24:13;;;;;;;11.70;6.13;;;24.80;99.90;;;;;;4973276;28;20081;-52
2023/09/05 07:26:40;;;;;;;9.77;6.05;;;24.80;99.90;;;;;;4982594;28;20054;-54
2023/09/05 07:29:11;;;;;;;10.07;5.20;;;25.10;99.90;;;;;;4990757;28;20030;-50
2023/09/05 07:31:37;;;;;;;9.70;5.70;;;25.30;99.90;;;;;;4990097;28;20446;-51
2023/09/05 07:34:04;;;;;;;10.40;5.60;;;25.80;99.90;;;;;;4990705;28;20031;-46
2023/09/05 07:36:31;;;;;;;7.97;4.72;;;26.20;99.90;;;;;;4990428;28;20030;-49
2023/09/05 07:38:58;;;;;;;7.55;4.47;;;26.50;99.90;;;;;;4990438;28;20081;-45
2023/09/05 07:41:24;;;;;;;7.78;4.97;;;26.50;99.90;;;;;;4990524;28;20034;-50
2023/09/05 07:43:49;;;;;;;8.20;4.88;;;26.30;99.90;;;;;;4990360;28;20030;-49
2023/09/05 07:46:15;;;;;;;7.00;4.47;;;26.20;99.90;;;;;;4990512;28;20054;-51
2023/09/05 07:48:41;;;;;;;7.45;4.25;;;26.10;99.90;;;;;;4990722;28;20030;-51
2023/09/05 07:51:07;;;;;;;7.28;4.65;;;26.30;99.90;;;;;;4990605;28;20495;-50
2023/09/05 07:53:37;;;;;;;6.53;4.20;;;26.10;99.90;;;;;;4990534;28;20022;-46
2023/09/05 07:56:03;;;;;;;8.43;4.70;;;26.50;99.90;;;;;;4989894;28;20026;-44
2023/09/05 07:58:29;;;;;;;10.63;5.35;;;26.60;99.90;;;;;;4990479;28;20049;-48
2023/09/05 08:00:56;;;;;;;6.72;4.15;;;26.30;99.90;;;;;;4990435;28;20058;-47
2023/09/05 08:03:28;;;;;;;8.63;4.55;;;26.30;99.90;;;;;;4990697;28;20065;-46
2023/09/05 08:05:54;;;;;;;7.30;4.80;;;26.50;99.90;;;;;;4990031;28;20426;-47
2023/09/05 08:08:22;;;;;;;8.13;3.92;;;27.10;99.90;;;;;;4990281;28;20050;-53
2023/09/05 08:10:48;;;;;;;;;;;27.60;99.90;;;;;;4990714;28;20030;-51
2023/09/05 08:13:14;;;;;;;6.80;3.35;;;28.10;99.90;;;;;;4990386;28;20389;-48
2023/09/05 08:15:44;;;;;;;5.80;3.38;;;28.50;99.90;;;;;;4990171;28;20114;-45
2023/09/05 08:18:13;;;;;;;5.25;3.20;;;28.30;99.90;;;;;;4991025;28;20038;-45
2023/09/05 08:20:42;;;;;;;5.35;2.80;;;28.60;99.90;;;;;;4993795;28;20022;-48
2023/09/05 08:23:09;;;;;;;7.50;3.30;;;29.00;99.90;;;;;;4993700;28;20479;-46
2023/09/05 08:25:34;;;;;;;7.82;3.00;;;29.20;99.90;;;;;;4993495;28;20100;-50
2023/09/05 08:28:00;;;;;;;4.63;2.55;;;29.00;99.90;;;;;;4993772;28;20176;-50
2023/09/05 08:30:28;;;;;;;3.90;2.55;;;28.90;99.90;;;;;;4993304;28;20113;-49
2023/09/05 08:32:56;;;;;;;4.05;2.20;;;28.90;99.90;;;;;;4986779;28;20038;-52
2023/09/05 08:35:22;;;;;;;4.82;2.42;;;28.90;99.90;;;;;;4993630;28;20061;-57
2023/09/05 08:37:47;;;;;;;4.63;2.17;;;28.80;99.90;;;;;;4993329;28;20081;-46
2023/09/05 08:40:15;;;;;;;3.97;2.10;;;28.90;99.90;;;;;;4993269;28;20085;-46
2023/09/05 08:42:41;;;;;;;6.10;1.75;;;29.50;99.90;;;;;;4993328;28;20026;-51
2023/09/05 08:45:15;;;;;;;5.20;2.40;;;29.90;99.90;;;;;;4993567;28;20026;-51
2023/09/05 08:47:40;;;;;;;4.97;2.40;;;30.20;99.90;;;;;;4992818;28;20656;-46
2023/09/05 08:50:08;;;;;;;5.32;2.20;;;30.60;99.80;;;;;;4992647;28;20046;-50
2023/09/05 08:52:38;;;;;;;3.80;2.00;;;31.00;99.70;;;;;;4992554;28;20080;-54
2023/09/05 08:55:06;;;;;;;3.30;2.20;;;31.30;99.90;;;;;;4993670;28;20057;-52
2023/09/05 08:57:35;;;;;;;4.95;1.90;;;31.30;97.40;;;;;;4992991;28;20034;-48
2023/09/05 09:00:04;;;;;;;4.65;2.15;;;31.00;97.50;;;;;;4993296;28;20026;-46
2023/09/05 09:02:30;;;;;;;3.75;2.20;;;31.50;96.30;;;;;;4993027;28;20053;-53
2023/09/05 09:04:56;;;;;;;2.58;1.67;;;31.40;95.40;;;;;;4992854;28;20026;-46
2023/09/05 09:07:29;;;;;;;3.50;1.90;;;31.10;94.80;;;;;;4993009;28;20427;-49
2023/09/05 09:09:58;;;;;;;3.50;2.00;;;30.90;93.90;;;;;;4992782;28;20391;-46
2023/09/05 09:12:30;;;;;;;3.50;1.88;;;30.60;95.50;;;;;;4992596;28;20026;-45
2023/09/05 09:15:09;;;;;;;2.58;1.50;;;30.60;95.00;;;;;;4991787;28;20037;-52
2023/09/05 09:17:39;;;;;;;2.72;1.50;;;30.90;94.90;;;;;;4992672;28;20019;-49
2023/09/05 09:20:05;;;;;;;3.05;2.00;;;31.30;96.00;;;;;;4992701;28;20062;-50
2023/09/05 09:22:31;;;;;;;3.05;2.00;;;31.30;94.00;;;;;;4992627;28;20034;-49
2023/09/05 09:24:57;;;;;;;3.30;1.98;;;31.50;92.80;;;;;;4992528;28;20030;-48
2023/09/05 09:27:23;;;;;;;3.65;1.95;;;31.70;93.30;;;;;;4991654;28;20054;-46
2023/09/05 09:29:55;;;;;;;4.13;1.95;;;31.80;93.50;;;;;;4991932;28;20054;-47
2023/09/05 09:32:22;;;;;;;3.13;1.90;;;32.10;93.30;;;;;;4992411;28;20022;-51
2023/09/05 09:34:49;;;;;;;2.20;1.50;;;32.10;92.10;;;;;;4991895;28;20029;-51
2023/09/05 09:37:24;;;;;;;2.23;1.47;;;32.30;93.10;;;;;;4992418;28;20069;-49
2023/09/05 09:39:56;;;;;;;3.63;1.85;;;32.50;92.60;;;;;;4992440;28;20459;-54
2023/09/05 09:42:25;;;;;;;2.88;1.63;;;32.50;91.30;;;;;;4992058;28;20053;-51
2023/09/05 09:44:52;;;;;;;3.25;1.98;;;32.00;91.50;;;;;;4992618;28;20034;-51
2023/09/05 09:47:18;;;;;;;4.22;2.03;;;32.10;92.40;;;;;;4992196;28;20486;-46
2023/09/05 09:49:47;;;;;;;3.53;1.80;;;31.90;92.10;;;;;;4992232;28;20018;-50
2023/09/05 09:52:16;;;;;;;4.20;2.25;;;32.30;93.20;;;;;;4992497;28;20111;-51
2023/09/05 09:54:43;;;;;;;;;;;32.60;93.60;;;;;;4992650;28;20116;-45
2023/09/05 09:57:13;;;;;;;3.17;1.97;;;32.70;92.00;;;;;;4992276;28;19910;-50
2023/09/05 09:59:45;;;;;;;5.13;2.22;;;33.00;92.20;;;;;;4991995;28;20117;-52
2023/09/05 10:02:14;;;;;;;4.60;1.98;;;33.20;92.30;;;;;;4992133;28;20046;-50
2023/09/05 10:04:41;;;;;;;2.50;1.77;;;32.90;90.60;;;;;;4991991;28;20034;-49
2023/09/05 10:07:11;;;;;;;4.97;2.08;;;32.60;90.10;;;;;;4991244;28;20129;-46
2023/09/05 10:09:37;;;;;;;3.70;2.22;;;32.80;91.80;;;;;;4991459;28;20034;-49
2023/09/05 10:12:05;;;;;;;4.05;2.50;;;32.80;91.70;;;;;;4991171;28;20080;-51
2023/09/05 10:14:31;;;;;;;3.75;2.00;;;32.70;91.10;;;;;;4991393;28;20057;-47
2023/09/05 10:16:58;;;;;;;3.25;1.83;;;32.20;91.40;;;;;;4991121;28;20589;-48
2023/09/05 10:19:28;;;;;;;3.03;1.90;;;32.40;92.90;;;;;;4990676;28;20026;-49
2023/09/05 10:21:55;;;;;;;3.45;2.13;;;32.50;91.80;;;;;;4990371;28;20018;-52
2023/09/05 10:24:23;;;;;;;3.80;1.90;;;32.40;90.40;;;;;;4991577;28;20037;-45
2023/09/05 10:26:48;;;;;;;3.57;1.87;;;32.40;91.70;;;;;;4974233;28;20065;-51
2023/09/05 10:29:40;;;;;;;3.55;1.80;;;32.40;90.20;;;;;;4991475;28;20391;-49
2023/09/05 10:32:06;;;;;;;3.95;1.67;;;32.50;91.10;;;;;;4982276;28;20057;-51
2023/09/05 10:34:47;;;;;;;5.15;2.00;;;32.90;88.60;;;;;;4991110;28;20376;-48
2023/09/05 10:37:38;;;;;;;3.60;1.98;;;33.00;88.30;;;;;;4982385;28;20081;-53
2023/09/05 10:40:07;;;;;;;2.88;1.80;;;33.10;89.30;;;;;;4991504;28;20030;-56
2023/09/05 10:42:34;;;;;;;2.67;1.70;;;32.90;85.70;;;;;;4990538;28;20027;-46
2023/09/05 10:45:21;;;;;;;2.15;1.40;;;32.80;86.30;;;;;;4991403;28;20511;-49
2023/09/05 10:47:49;;;;;;;3.38;1.67;;;32.80;88.30;;;;;;4991151;28;20105;-52
2023/09/05 10:50:20;;;;;;;3.45;1.88;;;32.80;87.00;;;;;;4991512;28;20045;-55
2023/09/05 10:53:10;;;;;;;2.88;1.80;;;33.00;87.40;;;;;;4991149;28;20037;-51
2023/09/05 10:55:43;;;;;;;2.55;1.60;;;32.80;86.70;;;;;;4991235;28;20026;-55
2023/09/05 10:58:48;;;;;;;5.00;1.50;;;32.50;85.30;;;;;;4978289;28;20498;-55
2023/09/05 11:01:45;;;;;;;3.47;1.70;;;32.60;85.40;;;;;;4991138;28;20127;-51
2023/09/05 11:04:18;;;;;;;3.78;1.70;;;32.60;87.50;;;;;;4979378;28;20034;-54
2023/09/05 11:06:54;;;;;;;2.40;1.55;;;32.60;86.50;;;;;;4990903;28;20088;-51
2023/09/05 11:09:20;;;;;;;5.20;1.65;;;32.60;87.40;;;;;;4991094;28;20034;-55
2023/09/05 11:11:45;;;;;;;3.70;1.60;;;32.90;85.20;;;;;;4990966;28;20014;-52
2023/09/05 11:14:11;;;;;;;2.60;1.60;;;32.70;87.60;;;;;;4990914;28;20113;-52
2023/09/05 11:16:49;;;;;;;3.15;1.70;;;32.80;85.10;;;;;;4991034;28;20018;-50
2023/09/05 11:19:38;;;;;;;2.83;1.60;;;32.80;85.00;;;;;;4991025;28;20045;-44
2023/09/05 11:22:18;;;;;;;3.10;1.40;;;32.70;83.80;;;;;;4990920;28;20107;-51
2023/09/05 11:24:49;;;;;;;3.85;2.10;;;32.70;86.40;;;;;;4990691;28;20108;-53
2023/09/05 11:27:18;;;;;;;3.65;1.92;;;33.00;87.00;;;;;;4990889;28;20022;-48
2023/09/05 11:29:45;;;;;;;3.03;1.67;;;33.10;84.80;;;;;;4990454;28;20368;-52
2023/09/05 11:32:15;;;;;;;3.80;1.90;;;33.30;85.10;;;;;;4990923;28;20058;-46
2023/09/05 11:34:42;;;;;;;3.30;1.65;;;33.30;84.70;;;;;;4990680;28;20054;-48
2023/09/05 11:37:08;;;;;;;3.75;1.70;;;33.30;84.00;;;;;;4989259;28;20080;-51
2023/09/05 11:39:33;;;;;;;2.67;1.60;;;33.40;84.20;;;;;;4990750;28;20038;-49
2023/09/05 11:42:00;;;;;;;4.90;1.67;;;33.20;85.00;;;;;;4990902;28;20023;-45
2023/09/05 11:44:39;;;;;;;2.63;1.65;;;33.40;85.60;;;;;;4990744;28;20070;-52
2023/09/05 11:47:06;;;;;;;2.90;1.52;;;33.00;88.70;;;;;;4990776;28;20031;-57
2023/09/05 11:49:35;;;;;;;3.25;1.50;;;33.20;84.40;;;;;;4990400;28;20032;-51
2023/09/05 11:52:03;;;;;;;3.00;1.70;;;32.80;83.40;;;;;;4990756;28;20472;-51
2023/09/05 11:54:30;;;;;;;2.85;1.60;;;32.60;82.70;;;;;;4993305;28;20019;-52
2023/09/05 11:56:57;;;;;;;2.28;1.40;;;32.30;82.90;;;;;;4994546;28;20019;-44
2023/09/05 11:59:24;;;;;;;3.28;1.58;;;32.40;86.50;;;;;;4993933;28;20495;-47
2023/09/05 12:01:51;;;;;;;2.33;1.60;;;32.40;84.20;;;;;;4994265;28;20076;-47
2023/09/05 12:04:17;;;;;;;2.95;1.65;;;32.30;84.50;;;;;;4994158;28;20030;-51
2023/09/05 12:06:47;;;;;;;2.97;1.88;;;32.50;83.60;;;;;;4993935;28;20368;-46
2023/09/05 12:09:12;;;;;;;2.20;1.30;;;32.50;84.80;;;;;;4994234;28;20074;-49
2023/09/05 12:11:38;;;;;;;2.53;1.67;;;32.60;83.80;;;;;;4993522;28;20050;-48
2023/09/05 12:14:05;;;;;;;3.70;1.90;;;32.20;82.80;;;;;;4993902;28;20080;-48
2023/09/05 12:16:31;;;;;;;2.22;1.63;;;32.40;85.10;;;;;;4993662;28;20501;-45
2023/09/05 12:18:58;;;;;;;3.50;1.70;;;32.20;84.80;;;;;;4993858;28;20057;-47
2023/09/05 12:21:25;;;;;;;2.05;1.48;;;32.10;85.70;;;;;;4993898;28;20113;-47
2023/09/05 12:23:52;;;;;;;2.75;1.58;;;32.40;86.30;;;;;;4993850;28;20035;-48
2023/09/05 12:26:18;;;;;;;2.53;1.70;;;32.50;86.80;;;;;;4993782;28;20022;-50
2023/09/05 12:28:53;;;;;;;3.00;1.70;;;32.20;82.50;;;;;;4993733;28;20026;-45
2023/09/05 12:31:20;;;;;;;3.83;1.65;;;32.30;84.10;;;;;;4993694;28;20019;-50
2023/09/05 12:33:46;;;;;;;3.08;1.63;;;32.30;84.90;;;;;;4993819;28;20052;-48
2023/09/05 12:36:12;;;;;;;2.42;1.50;;;32.40;85.50;;;;;;4993478;28;20480;-52
2023/09/05 12:38:38;;;;;;;2.28;1.38;;;32.30;82.20;;;;;;4976105;28;20042;-52
2023/09/05 12:41:03;;;;;;;3.88;1.60;;;32.20;83.40;;;;;;4993469;28;20398;-53
2023/09/05 12:43:29;;;;;;;3.15;1.80;;;32.00;83.50;;;;;;4993093;28;20062;-45